Time;durP1;ratioP1;P1;durP2;ratioP2;P2;SDS_P1;SDS_P2;PMS_P1;PMS_P2;Temp;Humidity;BMP_temperature;BMP_pressure;BME280_temperature;BME280_humidity;BME280_pressure;Samples;Min_cycle;Max_cycle;Signal;HPM_P1;HPM_P2
2023/04/08 00:01:00;;;;;;;38.95;19.52;;;;;;;4.87;61.25;93970.59;5065937;28;20009;-71
2023/04/08 00:03:25;;;;;;;39.20;18.90;;;;;;;4.80;61.04;93968.25;5066217;28;20323;-71
2023/04/08 00:05:51;;;;;;;38.08;20.45;;;;;;;4.66;61.55;93975.19;5065973;28;20319;-71
2023/04/08 00:08:16;;;;;;;30.58;19.17;;;;;;;4.60;61.14;93980.50;5066041;28;20032;-71
2023/04/08 00:10:42;;;;;;;42.58;20.13;;;;;;;4.51;61.56;93974.22;5066077;28;20021;-71
2023/04/08 00:13:07;;;;;;;35.05;19.20;;;;;;;4.48;61.97;93984.53;5065997;28;20199;-71
2023/04/08 00:15:33;;;;;;;39.10;19.40;;;;;;;4.43;62.05;93977.41;5066023;28;20142;-71
2023/04/08 00:17:58;;;;;;;33.42;18.58;;;;;;;4.40;62.70;93977.97;5065989;28;20377;-71
2023/04/08 00:20:24;;;;;;;41.00;19.70;;;;;;;4.46;62.48;93976.09;5065820;28;20025;-70
2023/04/08 00:22:49;;;;;;;33.35;20.10;;;;;;;4.51;62.30;93968.16;5065566;28;20032;-71
2023/04/08 00:25:14;;;;;;;35.50;18.92;;;;;;;4.48;62.18;93974.78;5065819;28;20338;-71
2023/04/08 00:27:40;;;;;;;37.97;19.13;;;;;;;4.49;62.57;93967.63;5065377;28;20334;-71
2023/04/08 00:30:06;;;;;;;31.80;18.50;;;;;;;4.49;62.54;93967.63;5065532;28;20083;-72
2023/04/08 00:32:31;;;;;;;37.35;18.98;;;;;;;4.51;62.23;93976.84;5065077;28;20021;-71
2023/04/08 00:34:57;;;;;;;39.42;19.73;;;;;;;4.51;62.29;93978.72;5065228;28;20029;-71
2023/04/08 00:37:23;;;;;;;37.60;19.50;;;;;;;4.54;62.54;93978.97;5065252;28;20021;-71
2023/04/08 00:39:49;;;;;;;39.67;19.10;;;;;;;4.59;62.65;93973.66;5065586;28;20025;-71
2023/04/08 00:42:16;;;;;;;38.47;19.75;;;;;;;4.65;62.91;93971.78;5065527;28;20029;-71
2023/04/08 00:44:41;;;;;;;31.88;19.70;;;;;;;4.72;63.06;93979.38;5065584;28;20025;-71
2023/04/08 00:47:11;;;;;;;40.85;20.58;;;;;;;4.77;63.15;93985.44;5064258;28;20036;-71
2023/04/08 00:49:37;;;;;;;41.13;21.08;;;;;;;4.78;63.46;93981.75;5065242;28;20024;-70
2023/04/08 00:52:02;;;;;;;35.42;20.77;;;;;;;4.82;63.43;93984.59;5065304;28;20094;-70
2023/04/08 00:54:27;;;;;;;37.40;20.75;;;;;;;4.85;63.19;93973.50;5065339;28;20029;-70
2023/04/08 00:56:53;;;;;;;37.78;21.25;;;;;;;4.89;63.00;93985.09;5064989;28;20056;-70
2023/04/08 00:59:18;;;;;;;38.17;21.52;;;;;;;4.94;63.05;93981.63;5065050;28;20039;-71
2023/04/08 01:01:58;;;;;;;40.55;20.35;;;;;;;4.97;62.68;93981.88;5065226;28;20021;-71
2023/04/08 01:04:38;;;;;;;39.78;21.08;;;;;;;4.96;62.81;93985.56;5065195;28;20185;-71
2023/04/08 01:07:06;;;;;;;39.95;21.45;;;;;;;4.99;62.94;93990.31;5065021;28;20457;-71
2023/04/08 01:09:34;;;;;;;43.80;19.83;;;;;;;5.01;62.84;93984.78;5064968;28;20270;-71
2023/04/08 01:12:04;;;;;;;35.05;20.05;;;;;;;5.02;62.61;93987.13;5063855;28;20025;-71
2023/04/08 01:14:33;;;;;;;39.35;20.08;;;;;;;5.07;62.10;93993.44;5064749;28;20021;-71
2023/04/08 01:17:01;;;;;;;37.90;19.67;;;;;;;5.08;62.26;93982.59;5064847;28;20039;-71
2023/04/08 01:19:37;;;;;;;38.28;20.77;;;;;;;5.13;62.53;93987.03;5064856;28;20271;-71
2023/04/08 01:22:14;;;;;;;38.58;19.38;;;;;;;5.14;62.30;93983.34;5064749;28;20256;-71
2023/04/08 01:24:43;;;;;;;33.80;18.80;;;;;;;5.17;62.42;93988.06;5064922;28;20025;-71
2023/04/08 01:27:10;;;;;;;35.83;19.63;;;;;;;5.18;62.57;93981.72;5064672;28;20017;-71
2023/04/08 01:29:36;;;;;;;33.92;18.85;;;;;;;5.16;62.55;93982.00;5064642;28;20017;-70
2023/04/08 01:32:02;;;;;;;37.03;20.02;;;;;;;5.16;62.68;93973.28;5064487;28;20036;-71
2023/04/08 01:34:29;;;;;;;42.60;19.90;;;;;;;5.18;62.50;93976.44;5064519;28;20254;-71
2023/04/08 01:36:56;;;;;;;38.88;20.17;;;;;;;5.18;62.58;93981.72;5064496;28;20024;-71
2023/04/08 01:39:22;;;;;;;36.55;19.70;;;;;;;5.17;63.17;93978.31;5064404;28;20031;-71
2023/04/08 01:41:52;;;;;;;35.35;19.85;;;;;;;5.18;63.22;93987.03;5064396;28;20020;-71
2023/04/08 01:44:19;;;;;;;37.85;20.33;;;;;;;5.19;63.37;93983.31;5064099;28;20029;-70
2023/04/08 01:46:46;;;;;;;34.45;17.70;;;;;;;5.22;63.68;93978.25;5062993;28;20048;-71
2023/04/08 01:49:14;;;;;;;36.78;18.98;;;;;;;5.22;63.72;93988.03;5064511;28;20311;-71
2023/04/08 01:51:40;;;;;;;37.88;17.05;;;;;;;5.20;63.34;93980.38;5063154;28;20042;-71
2023/04/08 01:54:06;;;;;;;30.50;18.13;;;;;;;5.21;63.25;93981.16;5064114;28;20029;-70
2023/04/08 01:56:36;;;;;;;34.60;17.77;;;;;;;5.20;63.29;93977.75;5063816;28;20048;-71
2023/04/08 01:59:08;;;;;;;35.78;17.13;;;;;;;5.18;63.30;93982.50;5064179;28;20327;-71
2023/04/08 02:01:34;;;;;;;30.23;17.83;;;;;;;5.16;63.57;93981.22;5064020;28;20338;-71
2023/04/08 02:04:02;;;;;;;33.47;18.95;;;;;;;5.18;63.55;93990.44;5063775;28;20029;-71
2023/04/08 02:06:28;;;;;;;39.28;19.70;;;;;;;5.18;63.60;94003.66;5063738;28;20231;-71
2023/04/08 02:08:55;;;;;;;34.97;19.05;;;;;;;5.20;63.66;94000.75;5063975;28;20029;-71
2023/04/08 02:11:20;;;;;;;33.35;18.60;;;;;;;5.18;63.60;93993.09;5063793;28;20055;-70
2023/04/08 02:13:46;;;;;;;33.97;18.95;;;;;;;5.10;63.88;94011.38;5063717;28;20020;-71
2023/04/08 02:16:17;;;;;;;35.03;18.00;;;;;;;5.04;63.99;94010.63;5063771;28;20078;-71
2023/04/08 02:18:50;;;;;;;35.63;18.02;;;;;;;5.00;63.76;94010.38;5063799;28;20024;-71
2023/04/08 02:21:18;;;;;;;38.85;18.20;;;;;;;4.90;64.19;94007.78;5062280;28;20021;-71
2023/04/08 02:23:49;;;;;;;28.48;14.85;;;;;;;4.73;64.37;94007.38;5063532;28;20029;-71
2023/04/08 02:26:16;;;;;;;33.90;17.13;;;;;;;4.60;64.75;94011.41;5063687;28;20043;-71
2023/04/08 02:28:42;;;;;;;29.80;17.05;;;;;;;4.55;64.88;94009.56;5063708;28;20024;-71
2023/04/08 02:31:12;;;;;;;31.83;17.98;;;;;;;4.34;65.48;94006.22;5063286;28;20028;-72
2023/04/08 02:33:38;;;;;;;39.83;19.95;;;;;;;4.22;65.85;94011.03;5063397;28;20028;-72
2023/04/08 02:36:05;;;;;;;36.55;20.27;;;;;;;4.10;65.85;94011.31;5063210;28;20096;-72
2023/04/08 02:38:30;;;;;;;40.22;21.15;;;;;;;3.91;66.66;94000.56;5063311;28;20033;-72
2023/04/08 02:40:56;;;;;;;31.77;19.38;;;;;;;3.97;66.52;94010.03;5063357;28;20040;-72
2023/04/08 02:43:28;;;;;;;38.03;20.70;;;;;;;3.98;66.57;94010.81;5063040;28;20078;-72
2023/04/08 02:45:54;;;;;;;31.20;18.33;;;;;;;3.97;66.75;94007.41;5063145;28;20144;-72
2023/04/08 02:48:19;;;;;;;35.63;19.23;;;;;;;4.02;66.71;94003.97;5063285;28;20025;-73
2023/04/08 02:50:45;;;;;;;40.08;20.10;;;;;;;4.12;66.55;94006.56;5063208;28;20043;-72
2023/04/08 02:53:10;;;;;;;36.10;18.58;;;;;;;4.17;66.30;94017.13;5062048;28;20013;-72
2023/04/08 02:55:36;;;;;;;32.13;16.85;;;;;;;4.21;65.28;94010.25;5062956;28;20017;-72
2023/04/08 02:58:02;;;;;;;34.85;19.38;;;;;;;4.22;64.78;94005.75;5062771;28;20104;-73
2023/04/08 03:00:27;;;;;;;31.73;18.48;;;;;;;4.22;65.40;94011.81;5062884;28;20048;-72
2023/04/08 03:02:53;;;;;;;34.30;19.08;;;;;;;4.22;65.29;94011.03;5062728;28;20032;-72
2023/04/08 03:05:18;;;;;;;30.90;17.63;;;;;;;4.27;65.02;94012.84;5062770;28;20071;-72
2023/04/08 03:07:44;;;;;;;33.28;18.25;;;;;;;4.32;65.29;94010.22;5063061;28;20033;-72
2023/04/08 03:10:09;;;;;;;31.10;18.08;;;;;;;4.37;65.20;94010.19;5062818;28;20092;-72
2023/04/08 03:12:35;;;;;;;31.27;17.55;;;;;;;4.43;65.25;94014.38;5063161;28;20096;-72
2023/04/08 03:15:02;;;;;;;36.78;18.30;;;;;;;4.48;65.36;94017.00;5062789;28;20021;-72
2023/04/08 03:17:27;;;;;;;36.88;20.05;;;;;;;4.52;65.18;94012.75;5062654;28;20017;-72
2023/04/08 03:19:53;;;;;;;35.95;19.90;;;;;;;4.51;65.29;94010.38;5062781;28;20031;-73
2023/04/08 03:22:18;;;;;;;39.55;21.00;;;;;;;4.56;65.53;94013.00;5062518;28;20067;-72
2023/04/08 03:24:44;;;;;;;39.70;21.08;;;;;;;4.57;65.38;94004.81;5062919;28;20027;-72
2023/04/08 03:27:11;;;;;;;39.92;20.95;;;;;;;4.62;65.11;94007.44;5062788;28;20092;-72
2023/04/08 03:29:37;;;;;;;40.90;19.80;;;;;;;4.64;65.20;94012.44;5062755;28;20021;-71
2023/04/08 03:32:02;;;;;;;37.70;20.08;;;;;;;4.66;65.49;94018.25;5062455;28;20211;-71
2023/04/08 03:34:28;;;;;;;36.10;19.52;;;;;;;4.66;65.73;94017.44;5063858;28;20254;-71
2023/04/08 03:36:53;;;;;;;35.17;19.80;;;;;;;4.69;65.93;94016.91;5066956;28;20013;-71
2023/04/08 03:39:18;;;;;;;34.53;20.15;;;;;;;4.69;65.81;94015.06;5066801;28;20311;-71
2023/04/08 03:41:44;;;;;;;33.95;20.65;;;;;;;4.67;65.14;94014.53;5066861;28;20040;-71
2023/04/08 03:44:09;;;;;;;37.67;18.50;;;;;;;4.66;64.77;94009.53;5066606;28;20088;-71
2023/04/08 03:46:35;;;;;;;33.30;20.35;;;;;;;4.68;64.88;94018.75;5066506;28;20017;-71
2023/04/08 03:49:00;;;;;;;31.13;18.83;;;;;;;4.69;65.06;94006.34;5066583;28;20017;-71
2023/04/08 03:51:27;;;;;;;33.22;18.33;;;;;;;4.74;65.28;94019.50;5066512;28;20020;-71
2023/04/08 03:53:52;;;;;;;33.15;18.00;;;;;;;4.76;65.44;94009.47;5066401;28;20028;-69
2023/04/08 03:56:18;;;;;;;37.22;18.05;;;;;;;4.78;65.05;94015.25;5066193;28;20243;-69
2023/04/08 03:58:43;;;;;;;30.67;17.73;;;;;;;4.82;65.10;94016.28;5066474;28;20231;-70
2023/04/08 04:01:09;;;;;;;29.10;17.25;;;;;;;4.82;64.78;94011.00;5066360;28;20033;-70
2023/04/08 04:03:35;;;;;;;35.25;17.80;;;;;;;4.81;64.84;94015.50;5066215;28;20017;-70
2023/04/08 04:06:00;;;;;;;32.25;18.13;;;;;;;4.86;64.75;94014.69;5066231;28;20043;-70
2023/04/08 04:08:25;;;;;;;30.80;17.98;;;;;;;4.88;64.84;94004.63;5066023;28;20032;-70
2023/04/08 04:10:51;;;;;;;41.30;21.17;;;;;;;4.84;65.00;94003.59;5066159;28;20032;-70
2023/04/08 04:13:18;;;;;;;38.25;19.02;;;;;;;4.86;64.56;94011.25;5066000;28;20084;-70
2023/04/08 04:15:44;;;;;;;34.40;18.92;;;;;;;4.85;64.69;94015.75;5065872;28;20016;-70
2023/04/08 04:18:09;;;;;;;43.97;19.55;;;;;;;4.86;64.45;94012.03;5066223;28;20047;-70
2023/04/08 04:20:36;;;;;;;34.92;19.48;;;;;;;4.86;64.71;94014.69;5065717;28;20016;-70
2023/04/08 04:23:01;;;;;;;39.80;18.77;;;;;;;4.92;64.29;94015.47;5066002;28;20084;-70
2023/04/08 04:25:27;;;;;;;34.03;19.83;;;;;;;4.91;64.43;94017.31;5066028;28;20029;-71
2023/04/08 04:27:52;;;;;;;34.92;21.23;;;;;;;4.91;64.48;94019.97;5065780;28;20062;-70
2023/04/08 04:30:18;;;;;;;39.88;19.08;;;;;;;4.90;64.34;94023.66;5065679;28;20029;-71
2023/04/08 04:32:44;;;;;;;41.28;19.73;;;;;;;4.81;64.73;94026.06;5065656;28;20311;-71
2023/04/08 04:35:10;;;;;;;42.50;19.63;;;;;;;4.89;64.57;94026.59;5065877;28;20055;-71
2023/04/08 04:37:35;;;;;;;39.90;22.08;;;;;;;4.88;64.78;94027.63;5065714;28;20040;-71
2023/04/08 04:40:01;;;;;;;45.25;22.33;;;;;;;4.88;64.80;94030.28;5065600;28;20025;-71
2023/04/08 04:42:27;;;;;;;42.30;20.92;;;;;;;4.89;64.82;94029.22;5065209;28;20327;-71
2023/04/08 04:44:53;;;;;;;46.40;21.63;;;;;;;4.87;64.86;94029.50;5065333;28;20074;-70
2023/04/08 04:47:18;;;;;;;39.15;19.35;;;;;;;4.90;64.91;94028.16;5064193;28;20055;-70
2023/04/08 04:49:44;;;;;;;35.53;17.25;;;;;;;4.96;64.54;94030.47;5065554;28;20024;-71
2023/04/08 04:52:10;;;;;;;28.42;16.33;;;;;;;4.95;64.33;94030.78;5065583;28;20027;-71
2023/04/08 04:54:35;;;;;;;34.58;17.90;;;;;;;4.94;63.56;94032.59;5065305;28;20025;-71
2023/04/08 04:57:01;;;;;;;36.88;19.05;;;;;;;4.85;63.44;94034.25;5064996;28;20332;-71
2023/04/08 04:59:26;;;;;;;37.00;18.45;;;;;;;4.82;63.56;94037.41;5065162;28;20219;-70
2023/04/08 05:01:52;;;;;;;38.65;16.25;;;;;;;4.76;63.23;94036.69;5065315;28;20110;-70
2023/04/08 05:04:17;;;;;;;30.85;16.63;;;;;;;4.76;63.23;94036.69;5064894;28;20382;-71
2023/04/08 05:06:42;;;;;;;28.58;16.58;;;;;;;4.83;62.81;94039.81;5065101;28;20020;-71
2023/04/08 05:09:08;;;;;;;31.88;16.42;;;;;;;4.90;62.52;94028.94;5064855;28;20323;-71
2023/04/08 05:11:33;;;;;;;34.45;17.70;;;;;;;4.92;63.20;94037.38;5064992;28;20330;-70
2023/04/08 05:13:59;;;;;;;41.40;19.67;;;;;;;4.95;63.85;94036.84;5064837;28;20092;-70
2023/04/08 05:16:24;;;;;;;35.95;18.48;;;;;;;4.97;63.50;94040.00;5064771;28;20089;-71
2023/04/08 05:18:50;;;;;;;32.88;18.23;;;;;;;4.99;63.21;94031.81;5064742;28;20219;-71
2023/04/08 05:21:15;;;;;;;37.30;18.75;;;;;;;5.06;63.21;94021.72;5064780;28;20021;-71
2023/04/08 05:23:41;;;;;;;38.42;19.30;;;;;;;5.12;62.81;94038.31;5064775;28;20025;-71
2023/04/08 05:26:07;;;;;;;31.02;17.45;;;;;;;5.24;62.48;94030.84;5064533;28;20025;-71
2023/04/08 05:28:33;;;;;;;37.88;18.15;;;;;;;5.28;62.48;94031.09;5064619;28;20024;-71
2023/04/08 05:30:59;;;;;;;29.08;16.95;;;;;;;5.32;61.47;94027.63;5064402;28;20379;-71
2023/04/08 05:33:25;;;;;;;30.40;16.05;;;;;;;5.35;61.75;94037.66;5064543;28;20123;-71
2023/04/08 05:35:51;;;;;;;31.88;17.00;;;;;;;5.37;61.10;94034.72;5064393;28;20027;-71
2023/04/08 05:38:17;;;;;;;27.95;15.63;;;;;;;5.48;60.72;94043.38;5064178;28;20075;-71
2023/04/08 05:40:43;;;;;;;27.23;16.02;;;;;;;5.58;60.48;94038.78;5063170;28;20029;-72
2023/04/08 05:43:08;;;;;;;29.05;16.10;;;;;;;5.65;60.01;94037.69;5063833;28;20223;-71
2023/04/08 05:45:33;;;;;;;31.83;15.23;;;;;;;5.72;59.66;94036.31;5064154;28;20036;-71
2023/04/08 05:47:59;;;;;;;33.00;16.10;;;;;;;5.82;59.35;94032.75;5064277;28;20327;-71
2023/04/08 05:50:25;;;;;;;31.00;16.02;;;;;;;5.87;58.89;94034.59;5064225;28;20028;-71
2023/04/08 05:52:50;;;;;;;27.67;15.93;;;;;;;5.87;59.14;94030.06;5064147;28;20103;-71
2023/04/08 05:55:15;;;;;;;26.05;14.85;;;;;;;5.86;59.05;94023.19;5063984;28;20334;-71
2023/04/08 05:57:41;;;;;;;34.60;15.18;;;;;;;5.95;59.42;94028.72;5063559;28;20374;-71
2023/04/08 06:00:08;;;;;;;41.75;16.08;;;;;;;6.05;58.83;94033.91;5063978;28;20020;-71
2023/04/08 06:02:35;;;;;;;27.40;14.98;;;;;;;6.16;58.64;94027.44;5063944;28;20441;-71
2023/04/08 06:05:01;;;;;;;32.35;15.73;;;;;;;6.21;58.53;94032.69;5063898;28;20172;-71
2023/04/08 06:07:26;;;;;;;26.52;13.80;;;;;;;6.32;58.16;94035.22;5063762;28;20187;-71
2023/04/08 06:09:51;;;;;;;24.95;14.50;;;;;;;6.30;57.90;94030.19;5063736;28;20361;-69
2023/04/08 06:12:17;;;;;;;29.52;14.77;;;;;;;6.38;57.51;94029.59;5063613;28;20029;-69
2023/04/08 06:14:42;;;;;;;24.95;13.90;;;;;;;6.45;57.51;94031.09;5064063;28;20017;-69
2023/04/08 06:17:08;;;;;;;24.75;14.18;;;;;;;6.55;57.29;94023.81;5063675;28;20045;-69
2023/04/08 06:19:34;;;;;;;27.60;15.15;;;;;;;6.67;57.13;94020.75;5063540;28;20028;-69
2023/04/08 06:21:59;;;;;;;31.58;13.48;;;;;;;6.67;56.49;94031.38;5063491;28;20020;-69
2023/04/08 06:24:26;;;;;;;23.38;13.43;;;;;;;6.75;56.68;94032.59;5063484;28;20080;-69
2023/04/08 06:26:52;;;;;;;26.40;14.50;;;;;;;6.88;56.15;94036.41;5063616;28;20227;-71
2023/04/08 06:29:18;;;;;;;30.23;13.80;;;;;;;6.96;56.01;94033.13;5063474;28;20020;-71
2023/04/08 06:31:43;;;;;;;27.40;13.68;;;;;;;6.98;55.92;94031.78;5063471;28;20307;-70
2023/04/08 06:34:09;;;;;;;30.63;14.68;;;;;;;6.93;56.16;94031.81;5063110;28;20017;-70
2023/04/08 06:36:34;;;;;;;31.70;13.30;;;;;;;6.99;55.99;94033.34;5063342;28;20067;-70
2023/04/08 06:38:59;;;;;;;23.92;13.63;;;;;;;7.07;55.65;94041.75;5063122;28;20029;-69
2023/04/08 06:41:25;;;;;;;27.63;15.00;;;;;;;7.06;55.80;94027.69;5063133;28;20043;-69
2023/04/08 06:43:50;;;;;;;30.13;12.38;;;;;;;7.10;55.81;94036.63;5063034;28;20063;-70
2023/04/08 06:46:16;;;;;;;24.73;14.65;;;;;;;7.22;55.81;94036.22;5062867;28;20038;-69
2023/04/08 06:48:41;;;;;;;27.73;14.40;;;;;;;7.36;55.32;94038.94;5063230;28;20220;-70
2023/04/08 06:51:07;;;;;;;34.40;15.35;;;;;;;7.36;55.06;94039.72;5062983;28;20063;-70
2023/04/08 06:53:32;;;;;;;24.88;14.57;;;;;;;7.40;55.29;94046.00;5063111;28;20021;-70
2023/04/08 06:55:58;;;;;;;26.85;14.90;;;;;;;7.44;55.14;94044.34;5062811;28;20075;-69
2023/04/08 06:58:23;;;;;;;27.60;15.20;;;;;;;7.39;55.20;94043.66;5062668;28;20323;-69
2023/04/08 07:00:49;;;;;;;30.00;13.43;;;;;;;7.32;55.96;94044.00;5062831;28;20063;-69
2023/04/08 07:03:15;;;;;;;28.45;12.38;;;;;;;7.39;56.08;94041.03;5062975;28;20071;-69
2023/04/08 07:05:41;;;;;;;27.65;13.48;;;;;;;7.46;55.68;94043.31;5062926;28;20323;-70
2023/04/08 07:08:07;;;;;;;21.85;12.45;;;;;;;7.49;55.77;94046.16;5062777;28;20021;-71
2023/04/08 07:10:34;;;;;;;26.08;12.50;;;;;;;7.69;55.66;94036.31;5062090;28;20025;-71
2023/04/08 07:13:00;;;;;;;25.55;12.93;;;;;;;7.83;55.33;94039.78;5062630;28;20082;-69
2023/04/08 07:15:25;;;;;;;20.42;12.52;;;;;;;7.89;54.93;94038.63;5062809;28;20104;-69
2023/04/08 07:17:51;;;;;;;23.27;12.40;;;;;;;8.02;54.52;94040.53;5062805;28;20071;-70
2023/04/08 07:20:17;;;;;;;19.88;12.38;;;;;;;8.18;54.54;94041.06;5062826;28;20029;-69
2023/04/08 07:22:42;;;;;;;27.65;13.05;;;;;;;8.34;53.67;94048.72;5062470;28;20025;-70
2023/04/08 07:25:08;;;;;;;26.25;12.65;;;;;;;8.50;53.01;94051.91;5062673;28;20029;-70
2023/04/08 07:27:33;;;;;;;18.40;12.02;;;;;;;8.59;52.96;94050.94;5062563;28;20108;-69
2023/04/08 07:30:00;;;;;;;21.77;12.57;;;;;;;8.73;53.19;94044.81;5062602;28;20033;-70
2023/04/08 07:32:26;;;;;;;24.90;11.82;;;;;;;8.87;52.62;94055.47;5062518;28;20027;-70
2023/04/08 07:34:51;;;;;;;20.25;12.07;;;;;;;8.96;52.39;94054.47;5062458;28;20024;-71
2023/04/08 07:37:17;;;;;;;32.45;13.02;;;;;;;9.15;52.42;94045.56;5062697;28;20040;-71
2023/04/08 07:39:42;;;;;;;25.90;12.95;;;;;;;9.29;52.15;94048.97;5062742;28;20131;-71
2023/04/08 07:42:08;;;;;;;18.25;11.27;;;;;;;9.38;52.53;94052.50;5062544;28;20067;-71
2023/04/08 07:44:33;;;;;;;25.25;11.88;;;;;;;9.48;51.26;94064.00;5062494;28;20333;-71
2023/04/08 07:46:59;;;;;;;19.63;10.65;;;;;;;9.67;52.60;94061.97;5062215;28;20315;-71
2023/04/08 07:49:24;;;;;;;17.88;11.07;;;;;;;9.73;51.54;94065.28;5062518;28;20044;-70
2023/04/08 07:51:50;;;;;;;16.45;10.25;;;;;;;9.91;51.34;94063.53;5062311;28;20089;-69
2023/04/08 07:54:16;;;;;;;18.77;11.10;;;;;;;10.13;51.69;94068.06;5062303;28;20017;-68
2023/04/08 07:56:43;;;;;;;25.15;10.88;;;;;;;10.29;50.50;94060.47;5062263;28;20056;-69
2023/04/08 07:59:10;;;;;;;19.25;10.55;;;;;;;10.48;49.12;94068.28;5061705;28;20211;-68
2023/04/08 08:01:35;;;;;;;20.30;10.85;;;;;;;10.44;49.30;94068.09;5062194;28;20032;-69
2023/04/08 08:04:01;;;;;;;21.17;11.52;;;;;;;10.57;49.41;94077.09;5062157;28;20334;-69
2023/04/08 08:06:26;;;;;;;19.70;12.50;;;;;;;10.66;47.86;94079.78;5062312;28;20017;-70
2023/04/08 08:08:52;;;;;;;17.63;11.75;;;;;;;10.60;47.33;94082.63;5062139;28;20021;-71
2023/04/08 08:11:18;;;;;;;18.90;11.70;;;;;;;10.54;47.14;94075.84;5061966;28;20021;-70
2023/04/08 08:13:43;;;;;;;32.30;14.65;;;;;;;10.51;47.69;94075.66;5062156;28;20369;-70
2023/04/08 08:16:10;;;;;;;24.25;15.25;;;;;;;10.53;48.48;94076.16;5062131;28;20017;-70
2023/04/08 08:18:36;;;;;;;29.00;12.90;;;;;;;10.55;47.45;94076.63;5062167;28;20063;-70
2023/04/08 08:21:04;;;;;;;31.35;11.68;;;;;;;10.58;46.97;94076.00;5064117;28;20029;-70
2023/04/08 08:23:30;;;;;;;20.60;11.45;;;;;;;10.40;46.83;94077.78;5065568;28;20020;-70
2023/04/08 08:26:03;;;;;;;32.03;13.55;;;;;;;10.30;47.07;94080.72;5065710;28;20082;-71
2023/04/08 08:28:29;;;;;;;29.17;14.73;;;;;;;10.17;46.90;94080.47;5065671;28;20029;-70
2023/04/08 08:30:54;;;;;;;27.65;13.45;;;;;;;10.20;47.51;94079.09;5065669;28;20024;-70
2023/04/08 08:33:20;;;;;;;32.28;12.85;;;;;;;10.22;47.77;94077.69;5065609;28;20037;-70
2023/04/08 08:35:45;;;;;;;28.83;12.88;;;;;;;10.27;48.28;94082.09;5065327;28;20052;-70
2023/04/08 08:38:12;;;;;;;23.48;12.07;;;;;;;10.25;48.81;94082.38;5065737;28;20028;-69
2023/04/08 08:40:38;;;;;;;27.98;11.27;;;;;;;10.27;48.97;94083.97;5065515;28;20043;-70
2023/04/08 08:43:03;;;;;;;24.55;12.20;;;;;;;10.34;48.15;94087.81;5065294;28;20509;-70
2023/04/08 08:45:29;;;;;;;22.40;12.40;;;;;;;10.46;48.33;94089.09;5065302;28;20028;-70
2023/04/08 08:47:56;;;;;;;22.42;11.63;;;;;;;10.62;47.91;94083.09;5064152;28;20207;-70
2023/04/08 08:50:21;;;;;;;28.98;10.95;;;;;;;10.79;46.54;94084.25;5065401;28;20226;-70
2023/04/08 08:52:51;;;;;;;27.33;10.63;;;;;;;10.88;46.22;94082.38;5065002;28;20016;-70
2023/04/08 08:55:20;;;;;;;17.80;10.20;;;;;;;10.86;45.47;94087.25;5064010;28;20378;-70
2023/04/08 08:57:50;;;;;;;25.77;10.30;;;;;;;10.77;45.13;94086.44;5065116;28;20071;-69
2023/04/08 09:00:15;;;;;;;16.48;10.00;;;;;;;10.94;45.66;94089.16;5065226;28;20092;-70
2023/04/08 09:02:41;;;;;;;22.58;11.25;;;;;;;11.14;45.64;94087.03;5065236;28;20021;-70
2023/04/08 09:05:07;;;;;;;20.10;9.75;;;;;;;11.29;44.87;94083.91;5065138;28;20028;-70
2023/04/08 09:07:36;;;;;;;23.00;10.57;;;;;;;11.47;44.73;94090.03;5065020;28;20032;-70
2023/04/08 09:10:01;;;;;;;19.67;10.82;;;;;;;11.68;44.47;94087.53;5064892;28;20033;-70
2023/04/08 09:12:27;;;;;;;15.55;10.02;;;;;;;11.89;45.08;94087.75;5064888;28;20039;-70
2023/04/08 09:15:07;;;;;;;16.33;10.73;;;;;;;12.07;44.94;94090.38;5064969;28;20032;-70
2023/04/08 09:17:37;;;;;;;22.02;10.60;;;;;;;12.29;44.44;94084.84;5064847;28;20084;-70
2023/04/08 09:20:11;;;;;;;18.45;10.13;;;;;;;12.45;43.73;94079.78;5064621;28;20035;-70
2023/04/08 09:22:56;;;;;;;20.35;11.73;;;;;;;12.60;43.61;94083.84;5064749;28;20032;-70
2023/04/08 09:25:26;;;;;;;21.77;12.25;;;;;;;12.67;43.76;94080.66;5064643;28;20025;-70
2023/04/08 09:27:53;;;;;;;24.23;15.45;;;;;;;12.49;44.33;94070.03;5064699;28;20263;-71
2023/04/08 09:30:22;;;;;;;23.30;13.82;;;;;;;12.68;44.23;94074.19;5064364;28;20048;-71
2023/04/08 09:32:54;;;;;;;20.17;11.18;;;;;;;12.85;43.73;94074.16;5063825;28;20084;-71
2023/04/08 09:35:20;;;;;;;;;;;;;;;12.89;42.07;94066.25;5065028;28;20048;-70
2023/04/08 09:37:46;;;;;;;15.43;8.95;;;;;;;12.88;43.01;94064.69;5064584;28;19912;-70
2023/04/08 09:40:14;;;;;;;15.27;8.93;;;;;;;13.05;42.97;94062.72;5064647;28;20017;-71
2023/04/08 09:42:43;;;;;;;16.15;9.07;;;;;;;13.22;42.78;94058.38;5064371;28;20108;-71
2023/04/08 09:45:10;;;;;;;14.98;8.15;;;;;;;13.32;42.20;94058.00;5064348;28;20020;-70
2023/04/08 09:48:01;;;;;;;17.80;8.30;;;;;;;13.50;41.64;94050.66;5064516;28;20192;-70
2023/04/08 09:50:31;;;;;;;15.27;7.65;;;;;;;13.67;41.21;94049.72;5062951;28;20025;-71
2023/04/08 09:53:01;;;;;;;15.00;8.43;;;;;;;13.81;40.57;94050.25;5064056;28;20315;-71
2023/04/08 09:55:31;;;;;;;12.63;7.95;;;;;;;14.01;40.81;94054.00;5064218;28;20032;-70
2023/04/08 09:58:28;;;;;;;14.23;8.95;;;;;;;14.19;40.43;94053.84;5063914;28;20060;-70
2023/04/08 10:00:54;;;;;;;23.90;9.95;;;;;;;14.24;39.92;94046.38;5063776;28;20284;-70
2023/04/08 10:03:25;;;;;;;18.38;10.65;;;;;;;14.18;39.77;94061.09;5063851;28;20059;-70
2023/04/08 10:05:58;;;;;;;24.35;11.02;;;;;;;14.09;39.82;94046.22;5063778;28;20033;-70
2023/04/08 10:08:25;;;;;;;18.13;11.57;;;;;;;14.09;39.84;94060.41;5063755;28;20096;-70
2023/04/08 10:10:52;;;;;;;18.63;10.48;;;;;;;14.08;39.99;94053.47;5063890;28;20020;-70
2023/04/08 10:13:18;;;;;;;21.35;10.95;;;;;;;13.96;40.32;94050.75;5063549;28;20307;-70
2023/04/08 10:15:46;;;;;;;17.40;11.38;;;;;;;13.88;40.76;94055.09;5063829;28;20036;-70
2023/04/08 10:18:13;;;;;;;22.70;12.90;;;;;;;13.75;40.82;94048.09;5063883;28;20026;-70
2023/04/08 10:20:38;;;;;;;22.10;12.00;;;;;;;13.69;41.63;94047.50;5063395;28;20035;-70
2023/04/08 10:23:04;;;;;;;18.65;11.27;;;;;;;13.43;41.92;94045.03;5063705;28;20538;-70
2023/04/08 10:25:30;;;;;;;20.38;12.63;;;;;;;13.32;43.45;94041.19;5063696;28;20095;-70
2023/04/08 10:27:56;;;;;;;21.65;12.60;;;;;;;13.21;44.43;94046.09;5062351;28;20350;-70
2023/04/08 10:30:28;;;;;;;23.15;11.98;;;;;;;13.23;45.43;94050.03;5062339;28;20025;-70
2023/04/08 10:32:58;;;;;;;21.55;13.38;;;;;;;13.23;44.84;94050.03;5063365;28;20062;-70
2023/04/08 10:35:40;;;;;;;25.00;12.75;;;;;;;13.14;44.91;94040.47;5063172;28;20025;-71
2023/04/08 10:38:06;;;;;;;26.25;12.32;;;;;;;13.20;45.87;94047.19;5063420;28;20024;-71
2023/04/08 10:40:40;;;;;;;22.02;12.98;;;;;;;13.19;45.71;94034.94;5063219;28;20262;-71
2023/04/08 10:43:06;;;;;;;20.75;12.20;;;;;;;13.28;47.23;94038.31;5063163;28;20051;-70
2023/04/08 10:45:32;;;;;;;23.77;13.35;;;;;;;13.38;47.23;94021.91;5062865;28;20307;-71
2023/04/08 10:48:28;;;;;;;24.92;12.65;;;;;;;13.52;48.10;94018.97;5063262;28;20025;-72
2023/04/08 10:51:01;;;;;;;21.30;12.77;;;;;;;13.67;46.79;94022.16;5063185;28;20021;-69
2023/04/08 10:53:27;;;;;;;20.42;12.15;;;;;;;13.70;45.75;94019.63;5063149;28;20021;-70
2023/04/08 10:55:54;;;;;;;27.70;12.18;;;;;;;13.67;45.00;94017.59;5062777;28;20048;-70
2023/04/08 10:58:19;;;;;;;21.05;11.82;;;;;;;13.74;44.39;94020.53;5062961;28;20249;-70
2023/04/08 11:00:45;;;;;;;17.50;11.05;;;;;;;13.78;43.58;94024.13;5063074;28;20028;-70
2023/04/08 11:03:10;;;;;;;21.48;11.73;;;;;;;13.78;42.76;94017.97;5063086;28;20020;-70
2023/04/08 11:05:37;;;;;;;20.15;11.63;;;;;;;13.76;42.26;94015.63;5062922;28;20250;-69
2023/04/08 11:08:04;;;;;;;27.55;12.93;;;;;;;13.81;42.22;94010.06;5061534;28;20016;-69
2023/04/08 11:10:30;;;;;;;22.23;12.68;;;;;;;13.78;42.71;94016.09;5062790;28;20029;-69
2023/04/08 11:12:57;;;;;;;24.20;13.40;;;;;;;13.76;42.13;94010.28;5062788;28;20012;-69
2023/04/08 11:15:25;;;;;;;20.10;11.77;;;;;;;13.62;42.59;94009.78;5062751;28;20044;-70
2023/04/08 11:17:52;;;;;;;20.08;12.15;;;;;;;13.65;42.81;94014.47;5062768;28;20017;-70
2023/04/08 11:20:18;;;;;;;19.52;11.73;;;;;;;13.72;42.90;94003.19;5062541;28;20052;-69
2023/04/08 11:22:44;;;;;;;25.73;11.65;;;;;;;13.76;41.36;93988.84;5062764;28;20036;-70